• Join FlightAware (Why Join?)
  • Login
  • US Flag 
02:50AM EDT


 

Airport Tracker/Info


-or-


 

Live Flight TrackerFlight Track Log ✈ UAL4588 ✈ 10-May-2013 ✈ KGPT - KIAH

Flight Track Log - Related Links

Times and Time Zones

All times are in EDT time to prevent confusion due to time zone crossing. See the UAL4588 flight status page for this flight to view local times or setup timezone preferences in your user account.

Time Position Orientation Groundspeed Altitude Reporting Facility
EDT Latitude Longitude Course Direction KTS MPH feet Rate Location/Type
07:03AM 30.3481 -89.0925 236° Southwest 191 220 2,600  Level Houston Center
07:04AM 30.3053 -89.1486 229° Southwest 221 254 4,600 1,980 Climbing Houston Center
07:05AM 30.2561 -89.2044 224° Southwest 239 275 6,700 2,220 Climbing Houston Center
07:06AM 30.1619 -89.4730 229° Southwest  Level FlightAware Approximate
07:06AM 30.2053 -89.2606 224° Southwest 247 284 9,100  Level Houston Center
07:07AM 30.1076 -89.5485 235° Southwest  Level FlightAware Approximate
07:07AM 30.1478 -89.3047 214° Southwest 247 284 10,900  Level Houston Center
07:08AM 30.0535 -89.6393 236° Southwest  Level FlightAware Approximate
07:08AM 30.0875 -89.3544 216° Southwest 254 292 12,200  Level Houston Center
07:09AM 30.0219 -89.4097 216° Southwest 273 314 13,400 1,200 Climbing Houston Center
07:10AM 29.9411 -89.4469 202° Southwest 308 354 14,700 1,080 Climbing Houston Center
07:11AM 29.8578 -89.4742 196° South 312 359 15,700 1,020 Climbing Houston Center
07:12AM 29.7692 -89.5044 197° South 325 374 16,800 1,020 Climbing Houston Center
07:13AM 29.6781 -89.5325 195° South 334 384 17,800 1,020 Climbing Houston Center
07:14AM 29.5919 -89.5711 201° Southwest 336 387 18,900 540 Climbing Houston Center
07:15AM 29.5244 -89.6517 226° Southwest 348 400 19,000 480 Climbing Houston Center
07:16AM 29.4572 -89.7389 228° Southwest 360 414 19,900 1,020 Climbing Houston Center
07:17AM 29.3775 -89.8425 229° Southwest 361 415 21,100 1,020 Climbing Houston Center
07:18AM 29.3114 -89.9272 228° Southwest 357 411 22,000 900 Climbing Houston Center
07:19AM 29.2464 -90.0122 229° Southwest 355 409 23,000 900 Climbing Houston Center
07:20AM 29.1781 -90.0925 226° Southwest 354 407 23,900 480 Climbing Houston Center
07:21AM 29.0883 -90.1517 210° Southwest 371 427 24,000  Climbing Houston Center
07:22AM 28.9950 -90.2142 210° Southwest 386 444 24,000  Level Houston Center
07:23AM 28.9000 -90.2797 211° Southwest 397 457 24,000 -60 Level Houston Center
07:24AM 28.8300 -90.3733 230° Southwest 399 459 23,900  Descending Houston Center
07:25AM 28.7758 -90.4814 240° Southwest 394 453 24,000  Climbing Houston Center
07:26AM 28.7353 -90.5989 249° West 400 460 24,000  Level Houston Center
07:27AM 28.7006 -90.7172 252° West 396 456 24,000  Level Houston Center
07:28AM 28.6653 -90.8361 251° West 396 456 24,000  Level Houston Center
07:29AM 28.6308 -90.9581 252° West 402 463 24,000  Level Houston Center
07:30AM 28.5869 -91.0717 246° West 397 457 24,000  Level Houston Center
07:31AM 28.5408 -91.1825 245° Southwest 392 451 24,000  Level Houston Center
07:32AM 28.4958 -91.2917 245° Southwest 384 442 24,000  Level Houston Center
07:33AM 28.4419 -91.4250 245° Southwest 386 444 24,000  Level Houston Center
07:34AM 28.3964 -91.5369 245° Southwest 389 448 24,000  Level Houston Center
07:35AM 28.3700 -91.6586 256° West 399 459 24,000  Level Houston Center
07:36AM 28.3836 -91.7747 278° West 404 465 24,000  Level Houston Center
07:37AM 28.3981 -91.9022 277° West 405 466 24,000  Level Houston Center
07:38AM 28.4158 -92.0264 279° West 400 460 24,000  Level Houston Center
07:39AM 28.4372 -92.1475 281° West 394 453 24,000  Level Houston Center
07:40AM 28.4642 -92.2675 284° West 392 451 24,000  Level Houston Center
07:41AM 28.4925 -92.3872 285° West 393 452 24,000  Level Houston Center
07:42AM 28.5236 -92.5078 286° West 396 456 24,000  Level Houston Center
07:43AM 28.5567 -92.6528 285° West 395 455 24,000  Level Houston Center
07:44AM 28.5822 -92.7722 284° West 390 449 24,000  Level Houston Center
07:45AM 28.6061 -92.8942 283° West 393 452 24,000  Level Houston Center
07:46AM 28.6286 -93.0175 282° West 397 457 24,000  Level Houston Center
07:47AM 28.6642 -93.1386 289° West 403 464 24,000 -60 Level Houston Center
07:48AM 28.7106 -93.2572 294° West 408 470 23,900 -60 Descending Houston Center
07:49AM 28.7553 -93.3697 294° West 396 456 23,900  Level Houston Center
07:50AM 28.8025 -93.4831 295° West 394 453 23,900  Level Houston Center
07:51AM 28.8583 -93.5917 300° West 397 457 24,000  Climbing Houston Center
07:52AM 28.9269 -93.6908 308° West 400 460 24,000  Level Houston Center
07:53AM 29.0108 -93.7808 317° Northwest 412 474 24,000  Level Houston Center
07:54AM 29.1047 -93.8833 316° Northwest 415 478 24,000 -1,200 Level Houston Center
07:55AM 29.1878 -93.9714 317° Northwest 410 472 21,700 -2,580 Descending Houston Center
07:56AM 29.2672 -94.0575 317° Northwest 397 457 18,900 -2,820 Descending Houston Center
07:57AM 29.3150 -94.1097 316° Northwest 394 453 17,300 -2,760 Descending Houston Center
07:57AM 29.3467 -94.1431 317° Northwest 394 453 16,100 -2,880 Descending Houston Center
07:58AM 29.3953 -94.1953 317° Northwest 362 417 14,400 -2,400 Descending Houston Center
07:58AM 29.4200 -94.2217 317° Northwest 367 422 13,700 -1,380 Descending Houston Center
07:59AM 29.4639 -94.2703 316° Northwest 344 396 13,000 -720 Descending Houston Center
07:59AM 29.4883 -94.2961 317° Northwest 343 395 13,000  Level Houston Center
08:00AM 29.5228 -94.3347 316° Northwest 314 361 13,000 -420 Level Houston Center
08:00AM 29.5450 -94.3731 304° West 326 375 12,600 -1,500 Descending Houston Center
08:01AM 29.5675 -94.4250 296° West 307 353 11,500 -1,920 Descending Houston Center
08:01AM 29.5828 -94.4606 296° West 310 357 10,700 -1,500 Descending Houston Center
08:02AM 29.6058 -94.5161 296° West 316 364 10,000 -720 Descending Houston Center
08:02AM 29.6214 -94.5506 297° West 312 359 10,000  Level Houston Center
08:03AM 29.6439 -94.6050 295° West 308 354 10,000  Level Houston Center
08:03AM 29.6592 -94.6394 297° West 312 359 10,000 -840 Level Houston Center
08:04AM 29.6794 -94.6894 295° West 268 308 9,200 -1,620 Descending Houston Center
08:04AM 29.6922 -94.7189 297° West 283 326 8,400 -1,800 Descending Houston Center
08:05AM 29.7092 -94.7581 296° West 269 310 7,600 -1,380 Descending Houston Center
08:05AM 29.7236 -94.7919 296° West 260 299 7,000 -1,320 Descending Houston Center
08:06AM 29.7394 -94.8311 295° West 236 272 6,300 -1,020 Descending Houston Center
08:06AM 29.7586 -94.8753 297° West 245 282 6,000 -300 Descending Houston Center
08:07AM 29.7714 -94.9019 299° West 254 292 6,000  Level Houston Center
08:07AM 29.7908 -94.9489 296° West 255 293 6,000  Level Houston Center
08:08AM 29.8017 -94.9775 294° West 260 299 6,000  Level Houston Center
08:08AM 29.8217 -95.0228 297° West 258 297 6,000  Level Houston Center
08:09AM 29.8342 -95.0556 294° West 256 295 6,000  Level Houston Center
08:09AM 29.8528 -95.0972 297° West 259 298 6,000  Level Houston Center
08:10AM 29.8664 -95.1308 295° West 262 302 6,000  Level Houston Center
08:10AM 29.8847 -95.1714 298° West 261 300 6,000  Level Houston Center
08:11AM 29.8967 -95.2069 291° West 261 300 6,000  Level Houston Center
08:11AM 29.9003 -95.2481 276° West 250 288 6,000  Level Houston Center
08:12AM 29.8992 -95.2811 268° West 221 254 6,000  Level Houston Center
08:13AM 29.9000 -95.3169 272° West 219 252 6,000  Level Houston Center
08:13AM 29.8983 -95.3608 268° West 219 252 6,000  Level Houston Center
08:14AM 29.9003 -95.3867 275° West 219 252 6,000  Level Houston Center
08:14AM 29.8983 -95.4308 267° West 225 259 6,000  Level Houston Center
08:15AM 29.9000 -95.4575 274° West 222 255 6,000  Level Houston Center
08:15AM 29.8986 -95.5031 268° West 219 252 6,000  Level Houston Center
08:16AM 29.8986 -95.5278 270° West 221 254 6,000 -1,140 Level Houston Center
08:16AM 29.8964 -95.5731 267° West 224 258 4,900 -1,920 Descending Houston Center
08:17AM 29.8978 -95.6125 272° West 222 255 4,100 -1,500 Descending Houston Center
08:17AM 29.9006 -95.6425 276° West 220 253 3,400 -1,140 Descending Houston Center
08:18AM 29.9206 -95.6739 306° West 225 259 3,000 -480 Descending Houston Center
08:18AM 29.9456 -95.6758 356° North 235 270 3,000  Level Houston Center
08:19AM 29.9697 -95.6417 51° Northeast 235 270 3,000  Level Houston Center
08:19AM 29.9833 -95.6039 67° East 240 276 3,000  Level Houston Center
08:20AM 29.9936 -95.5697 71° East 237 273 3,000 -120 Level Houston Center
08:20AM 29.9933 -95.5303 90° East 224 258 2,900 -240 Descending Houston Center